WetterOnline ( https://www.wetteronline.de )

Wetter aktuell Schmalkalden

Aktuelles Wetter: Meiningen (453m)

6-stündlich | Neueste Meldungen
Ortszeit Temperatur Wetter
Mi, 25.05. 20:00 16.8° C fast wolkenlos
Mi, 25.05. 14:00 17.2° C bewölkt
Mi, 25.05. 8:00 9.8° C bedeckt
Mi, 25.05. 2:00 9.3° C bedeckt
Di, 24.05. 20:00 16.6° C bewölkt
Di, 24.05. 14:00 15.1° C bewölkt
Di, 24.05. 8:00 13.7° C bewölkt
Di, 24.05. 2:00 15.1° C bedeckt
Ortszeit Temperatur Wetter
Mi, 25.05. 23:30 14.1° C bewölkt
Mi, 25.05. 23:20 14.1° C bewölkt
Mi, 25.05. 23:10 14.1° C bewölkt
Mi, 25.05. 23:00 14.4° C bewölkt
Mi, 25.05. 22:50 14.4° C bewölkt
Mi, 25.05. 22:40 14.4° C bedeckt
Mi, 25.05. 22:30 14.0° C bedeckt
Mi, 25.05. 22:00 15.1° C bedeckt
Mi, 25.05. 21:30 15.3° C bewölkt
Mi, 25.05. 21:00 15.7° C bewölkt
Mi, 25.05. 20:30 16.4° C wolkig
Ortszeit Relative Feuchte Sichtweite
Mi, 25.05. 20:00 44% >70 km
Mi, 25.05. 14:00 43% 55 km
Mi, 25.05. 8:00 85% 65 km
Mi, 25.05. 2:00 83% >70 km
Di, 24.05. 20:00 50% >70 km
Di, 24.05. 14:00 62% >70 km
Di, 24.05. 8:00 89% 45 km
Di, 24.05. 2:00 96% 30 km
Ortszeit Relative Feuchte Sichtweite
Mi, 25.05. 23:30 51% >70 km
Mi, 25.05. 23:20 51% -
Mi, 25.05. 23:10 53% -
Mi, 25.05. 23:00 51% >70 km
Mi, 25.05. 22:50 51% -
Mi, 25.05. 22:40 50% -
Mi, 25.05. 22:30 52% >70 km
Mi, 25.05. 22:00 48% >70 km
Mi, 25.05. 21:30 47% >70 km
Mi, 25.05. 21:00 47% >70 km
Mi, 25.05. 20:30 45% 50 km
Ortszeit Niederschlagsmenge Niederschlagsart
Mi, 25.05. 20:00 0.0 l/m2 in 12 Std. -
Mi, 25.05. 14:00 0.0 l/m2 in 6 Std. -
Mi, 25.05. 8:00 0.0 l/m2 in 12 Std. -
Mi, 25.05. 2:00 0.0 l/m2 in 6 Std. -
Di, 24.05. 20:00 0.3 l/m2 in 12 Std. Regen
Di, 24.05. 14:00 0.3 l/m2 in 6 Std. Regen
Di, 24.05. 8:00 3 l/m2 in 12 Std. Regen
Di, 24.05. 2:00 2 l/m2 in 6 Std. Regen
Ortszeit Niederschlagsmenge Niederschlagsart
Mi, 25.05. 23:30 0.0 l/m2 in 1 Std. -
Mi, 25.05. 23:20 keine Meldung -
Mi, 25.05. 23:10 keine Meldung -
Mi, 25.05. 23:00 0.0 l/m2 in 1 Std. -
Mi, 25.05. 22:50 keine Meldung -
Mi, 25.05. 22:40 keine Meldung -
Mi, 25.05. 22:30 0.0 l/m2 in 1 Std. -
Mi, 25.05. 22:00 0.0 l/m2 in 1 Std. -
Mi, 25.05. 21:30 0.0 l/m2 in 1 Std. -
Mi, 25.05. 21:00 0.0 l/m2 in 1 Std. -
Mi, 25.05. 20:30 0.0 l/m2 in 1 Std. -
Ortszeit Stärke Spitze Richtung
km/h Bft. km/h Grad Sektor
Mi, 25.05. 20:00 13 3 39 270° W
Mi, 25.05. 14:00 15 3 33 240° SW
Mi, 25.05. 8:00 4 1 11 60° NO
Mi, 25.05. 2:00 4 1 22 140° SO
Di, 24.05. 20:00 9 2 31 230° SW
Di, 24.05. 14:00 18 3 43 270° W
Di, 24.05. 8:00 15 3 28 190° S
Di, 24.05. 2:00 17 3 37 200° S
Ortszeit Stärke Spitze Richtung
km/h Bft. km/h Grad Sektor
Mi, 25.05. 23:30 4 1 11 220° SW
Mi, 25.05. 23:20 4 1 - 220° SW
Mi, 25.05. 23:10 6 1 - 240° SW
Mi, 25.05. 23:00 4 1 11 230° SW
Mi, 25.05. 22:50 4 1 - 230° SW
Mi, 25.05. 22:40 6 1 - 230° SW
Mi, 25.05. 22:30 4 1 11 270° W
Mi, 25.05. 22:00 7 2 18 220° SW
Mi, 25.05. 21:30 11 2 18 220° SW
Mi, 25.05. 21:00 9 2 20 230° SW
Mi, 25.05. 20:30 11 2 22 240° SW
Ortszeit Untergrenze Bedeckung Gattung
total tief tief mittel hoch
Mi, 25.05. 20:00 6300 m 1/8 1/8 - - -
Mi, 25.05. 14:00 1500 m 7/8 7/8 - - -
Mi, 25.05. 8:00 6600 m 8/8 8/8 - - -
Mi, 25.05. 2:00 4800 m 8/8 8/8 - - -
Di, 24.05. 20:00 2400 m 7/8 7/8 - - -
Di, 24.05. 14:00 1800 m 7/8 7/8 - - -
Di, 24.05. 8:00 180 m 7/8 7/8 - - -
Di, 24.05. 2:00 240 m 8/8 8/8 - - -
Ortszeit Bedeckungsgrad in Achtel und Wolkenuntergrenze
Mi, 25.05. 23:30 7(2700m) 7(3600m) 7(9000m)
Mi, 25.05. 23:20 7(2700m) 7(3600m) 7(9000m)
Mi, 25.05. 23:10 7
Mi, 25.05. 23:00 7(2700m) 8(3600m) 8(6000m)
Mi, 25.05. 22:50 7(2700m) 8(3600m) 8(6000m)
Mi, 25.05. 22:40 8
Mi, 25.05. 22:30 2(3000m) 8(3600m) 8(6000m)
Mi, 25.05. 22:00 8(3600m) 8(6300m)
Mi, 25.05. 21:30 7(3900m) 7(9000m) 8(9000m)
Mi, 25.05. 21:00 7(3900m) 7(6000m) 8(9000m)
Mi, 25.05. 20:30 3(3900m) 4(6300m) 5(9000m)
Ortszeit Luftdruck NN (hPa) Tendenz (hPa in 3 Std.)
Mi, 25.05. 20:00 1017 + 1,1
Mi, 25.05. 14:00 1016 + 0,2
Mi, 25.05. 8:00 1016 + 1,5
Mi, 25.05. 2:00 1014 + 0,8
Di, 24.05. 20:00 1010 + 1,1
Di, 24.05. 14:00 1008 + 2,3
Di, 24.05. 8:00 1005 + 1,0
Di, 24.05. 2:00 1003 + 1,4
Ortszeit Luftdruck NN (hPa) Tendenz (hPa in 3 Std.)
Mi, 25.05. 23:30 1018 + 1,1
Mi, 25.05. 23:20 1018 keine Meldung
Mi, 25.05. 23:10 1018 keine Meldung
Mi, 25.05. 23:00 1018 + 1,2
Mi, 25.05. 22:50 1018 keine Meldung
Mi, 25.05. 22:40 1018 keine Meldung
Mi, 25.05. 22:30 1018 + 1,3
Mi, 25.05. 22:00 1018 + 1,2
Mi, 25.05. 21:30 1018 + 1,1
Mi, 25.05. 21:00 1017 + 1,1
Mi, 25.05. 20:30 1017 + 1,0
Ortszeit Schneehöhe (cm)
Mi, 25.05. 20:00 0
Mi, 25.05. 14:00 0
Mi, 25.05. 8:00 0
Mi, 25.05. 2:00 0
Di, 24.05. 20:00 0
Di, 24.05. 14:00 0
Di, 24.05. 8:00 0
Di, 24.05. 2:00 0
Ortszeit Schneehöhe (cm)
Mi, 25.05. 23:30 0
Mi, 25.05. 23:20 0
Mi, 25.05. 23:10 0
Mi, 25.05. 23:00 0
Mi, 25.05. 22:50 0
Mi, 25.05. 22:40 0
Mi, 25.05. 22:30 0
Mi, 25.05. 22:00 0
Mi, 25.05. 21:30 0
Mi, 25.05. 21:00 0
Mi, 25.05. 20:30 0
Link zu dieser Seite / Seite empfehlen

Das Wetter in ...